sensor_id;sensor_type;location;lat;lon;timestamp;pressure;altitude;pressure_sealevel;temperature;humidity
58295;BME280;45705;55.592;37.460;2022-07-18T00:02:12;99088.53;;;15.21;94.14
58295;BME280;45705;55.592;37.460;2022-07-18T00:04:37;99096.03;;;15.12;94.21
58295;BME280;45705;55.592;37.460;2022-07-18T00:07:03;99093.09;;;15.17;93.37
58295;BME280;45705;55.592;37.460;2022-07-18T00:09:29;99094.78;;;15.09;93.45
58295;BME280;45705;55.592;37.460;2022-07-18T00:11:56;99087.59;;;15.05;93.01
58295;BME280;45705;55.592;37.460;2022-07-18T00:14:22;99088.50;;;15.09;93.58
58295;BME280;45705;55.592;37.460;2022-07-18T00:16:49;99078.09;;;15.02;92.71
58295;BME280;45705;55.592;37.460;2022-07-18T00:19:16;99080.75;;;15.11;92.99
58295;BME280;45705;55.592;37.460;2022-07-18T00:21:42;99082.00;;;15.13;92.73
58295;BME280;45705;55.592;37.460;2022-07-18T00:24:07;99081.63;;;14.90;92.53
58295;BME280;45705;55.592;37.460;2022-07-18T00:26:33;99080.16;;;14.93;93.50
58295;BME280;45705;55.592;37.460;2022-07-18T00:28:59;99077.78;;;15.04;92.96
58295;BME280;45705;55.592;37.460;2022-07-18T00:31:25;99090.78;;;15.07;92.43
58295;BME280;45705;55.592;37.460;2022-07-18T00:33:51;99087.34;;;14.98;92.40
58295;BME280;45705;55.592;37.460;2022-07-18T00:36:16;99084.63;;;15.10;92.43
58295;BME280;45705;55.592;37.460;2022-07-18T00:38:42;99089.63;;;14.95;91.39
58295;BME280;45705;55.592;37.460;2022-07-18T00:41:08;99088.13;;;14.98;92.43
58295;BME280;45705;55.592;37.460;2022-07-18T00:43:33;99091.72;;;15.11;92.01
58295;BME280;45705;55.592;37.460;2022-07-18T00:45:59;99091.47;;;15.04;91.90
58295;BME280;45705;55.592;37.460;2022-07-18T00:48:25;99074.78;;;14.96;92.43
58295;BME280;45705;55.592;37.460;2022-07-18T00:50:51;99083.22;;;14.91;93.37
58295;BME280;45705;55.592;37.460;2022-07-18T00:53:16;99087.09;;;14.90;93.86
58295;BME280;45705;55.592;37.460;2022-07-18T00:55:44;99088.00;;;14.94;94.35
58295;BME280;45705;55.592;37.460;2022-07-18T00:58:11;99084.75;;;15.13;93.20
58295;BME280;45705;55.592;37.460;2022-07-18T01:00:38;99082.31;;;15.00;92.81
58295;BME280;45705;55.592;37.460;2022-07-18T01:03:23;99074.91;;;15.00;93.09
58295;BME280;45705;55.592;37.460;2022-07-18T01:05:48;99080.63;;;15.07;92.31
58295;BME280;45705;55.592;37.460;2022-07-18T01:08:14;99086.88;;;14.95;92.43
58295;BME280;45705;55.592;37.460;2022-07-18T01:10:40;99084.41;;;15.03;91.87
58295;BME280;45705;55.592;37.460;2022-07-18T01:13:06;99076.88;;;15.12;91.82
58295;BME280;45705;55.592;37.460;2022-07-18T01:15:32;99075.53;;;15.18;91.53
58295;BME280;45705;55.592;37.460;2022-07-18T01:17:57;99075.75;;;15.25;90.91
58295;BME280;45705;55.592;37.460;2022-07-18T01:20:28;99080.78;;;15.35;90.15
58295;BME280;45705;55.592;37.460;2022-07-18T01:22:54;99066.63;;;15.33;89.86
58295;BME280;45705;55.592;37.460;2022-07-18T01:25:20;99069.84;;;15.35;90.27
58295;BME280;45705;55.592;37.460;2022-07-18T01:27:45;99070.50;;;15.32;90.14
58295;BME280;45705;55.592;37.460;2022-07-18T01:30:11;99077.47;;;15.30;90.64
58295;BME280;45705;55.592;37.460;2022-07-18T01:32:37;99074.03;;;15.33;90.11
58295;BME280;45705;55.592;37.460;2022-07-18T01:35:04;99081.53;;;15.11;90.04
58295;BME280;45705;55.592;37.460;2022-07-18T01:37:30;99078.91;;;15.03;89.61
58295;BME280;45705;55.592;37.460;2022-07-18T01:39:55;99081.66;;;15.03;89.26
58295;BME280;45705;55.592;37.460;2022-07-18T01:42:21;99076.97;;;15.15;89.27
58295;BME280;45705;55.592;37.460;2022-07-18T01:44:47;99079.50;;;15.21;89.28
58295;BME280;45705;55.592;37.460;2022-07-18T01:47:13;99077.81;;;15.16;89.08
58295;BME280;45705;55.592;37.460;2022-07-18T01:49:39;99077.47;;;15.30;88.71
58295;BME280;45705;55.592;37.460;2022-07-18T01:52:06;99073.03;;;15.38;87.57
58295;BME280;45705;55.592;37.460;2022-07-18T01:54:34;99068.91;;;15.44;86.97
58295;BME280;45705;55.592;37.460;2022-07-18T01:57:03;99067.53;;;15.25;87.70
58295;BME280;45705;55.592;37.460;2022-07-18T01:59:29;99073.16;;;15.41;87.45
58295;BME280;45705;55.592;37.460;2022-07-18T02:01:55;99068.00;;;15.40;87.08
58295;BME280;45705;55.592;37.460;2022-07-18T02:04:21;99067.66;;;15.41;87.15
58295;BME280;45705;55.592;37.460;2022-07-18T02:07:07;99068.91;;;15.44;86.71
58295;BME280;45705;55.592;37.460;2022-07-18T02:09:33;99069.13;;;15.39;85.62
58295;BME280;45705;55.592;37.460;2022-07-18T02:11:58;99058.41;;;15.46;85.20
58295;BME280;45705;55.592;37.460;2022-07-18T02:14:24;99065.94;;;15.36;84.82
58295;BME280;45705;55.592;37.460;2022-07-18T02:16:50;99057.69;;;15.49;85.14
58295;BME280;45705;55.592;37.460;2022-07-18T02:19:15;99072.31;;;15.41;85.21
58295;BME280;45705;55.592;37.460;2022-07-18T02:21:41;99058.72;;;15.56;85.63
58295;BME280;45705;55.592;37.460;2022-07-18T02:24:07;99061.13;;;15.58;84.51
58295;BME280;45705;55.592;37.460;2022-07-18T02:26:33;99058.84;;;15.60;83.54
58295;BME280;45705;55.592;37.460;2022-07-18T02:29:00;99064.13;;;15.53;83.70
58295;BME280;45705;55.592;37.460;2022-07-18T02:31:26;99060.78;;;15.72;83.47
58295;BME280;45705;55.592;37.460;2022-07-18T02:33:51;99064.00;;;15.74;83.46
58295;BME280;45705;55.592;37.460;2022-07-18T02:36:17;99060.56;;;15.65;83.46
58295;BME280;45705;55.592;37.460;2022-07-18T02:38:43;99057.94;;;15.68;82.85
58295;BME280;45705;55.592;37.460;2022-07-18T02:41:09;99062.38;;;15.85;82.07
58295;BME280;45705;55.592;37.460;2022-07-18T02:43:35;99058.28;;;15.67;82.03
58295;BME280;45705;55.592;37.460;2022-07-18T02:46:01;99055.19;;;15.68;80.49
58295;BME280;45705;55.592;37.460;2022-07-18T02:48:26;99058.16;;;15.75;80.96
58295;BME280;45705;55.592;37.460;2022-07-18T02:50:52;99064.56;;;15.92;80.05
58295;BME280;45705;55.592;37.460;2022-07-18T02:53:18;99067.63;;;15.90;80.23
58295;BME280;45705;55.592;37.460;2022-07-18T02:56:02;99052.69;;;15.88;79.90
58295;BME280;45705;55.592;37.460;2022-07-18T02:58:28;99069.59;;;15.90;80.45
58295;BME280;45705;55.592;37.460;2022-07-18T03:00:54;99066.63;;;15.83;80.57
58295;BME280;45705;55.592;37.460;2022-07-18T03:03:19;99059.88;;;15.92;80.89
58295;BME280;45705;55.592;37.460;2022-07-18T03:05:45;99050.28;;;15.86;80.73
58295;BME280;45705;55.592;37.460;2022-07-18T03:08:11;99058.69;;;16.06;80.90
58295;BME280;45705;55.592;37.460;2022-07-18T03:10:36;99060.72;;;16.09;80.57
58295;BME280;45705;55.592;37.460;2022-07-18T03:13:02;99067.59;;;16.15;79.54
58295;BME280;45705;55.592;37.460;2022-07-18T03:15:28;99058.53;;;16.14;79.69
58295;BME280;45705;55.592;37.460;2022-07-18T03:17:53;99066.56;;;16.07;79.64
58295;BME280;45705;55.592;37.460;2022-07-18T03:20:19;99064.72;;;16.11;79.72
58295;BME280;45705;55.592;37.460;2022-07-18T03:22:45;99063.59;;;16.41;79.27
58295;BME280;45705;55.592;37.460;2022-07-18T03:25:11;99065.34;;;16.33;79.00
58295;BME280;45705;55.592;37.460;2022-07-18T03:27:36;99053.16;;;16.18;79.92
58295;BME280;45705;55.592;37.460;2022-07-18T03:30:02;99052.38;;;16.18;81.02
58295;BME280;45705;55.592;37.460;2022-07-18T03:32:29;99050.00;;;16.32;79.34
58295;BME280;45705;55.592;37.460;2022-07-18T03:34:55;99054.72;;;16.31;78.78
58295;BME280;45705;55.592;37.460;2022-07-18T03:37:21;99059.34;;;16.43;79.38
58295;BME280;45705;55.592;37.460;2022-07-18T03:39:47;99051.91;;;16.44;79.02
58295;BME280;45705;55.592;37.460;2022-07-18T03:42:12;99051.09;;;16.56;76.07
58295;BME280;45705;55.592;37.460;2022-07-18T03:44:38;99058.13;;;16.41;77.54
58295;BME280;45705;55.592;37.460;2022-07-18T03:47:04;99059.16;;;16.36;78.06
58295;BME280;45705;55.592;37.460;2022-07-18T03:49:29;99058.00;;;16.65;76.18
58295;BME280;45705;55.592;37.460;2022-07-18T03:51:55;99058.06;;;16.69;74.88
58295;BME280;45705;55.592;37.460;2022-07-18T03:54:22;99057.19;;;16.65;74.54
58295;BME280;45705;55.592;37.460;2022-07-18T03:56:49;99059.50;;;16.63;74.51
58295;BME280;45705;55.592;37.460;2022-07-18T03:59:15;99058.19;;;16.72;74.51
58295;BME280;45705;55.592;37.460;2022-07-18T04:01:40;99058.88;;;16.98;72.84
58295;BME280;45705;55.592;37.460;2022-07-18T04:04:06;99058.69;;;16.90;73.63
58295;BME280;45705;55.592;37.460;2022-07-18T04:06:32;99063.66;;;17.01;72.19
58295;BME280;45705;55.592;37.460;2022-07-18T04:08:58;99067.53;;;17.00;72.12
58295;BME280;45705;55.592;37.460;2022-07-18T04:11:24;99065.34;;;17.05;70.52
58295;BME280;45705;55.592;37.460;2022-07-18T04:13:51;99060.47;;;16.99;70.93
58295;BME280;45705;55.592;37.460;2022-07-18T04:16:17;99056.56;;;17.00;70.55
58295;BME280;45705;55.592;37.460;2022-07-18T04:18:43;99064.81;;;17.16;70.08
58295;BME280;45705;55.592;37.460;2022-07-18T04:21:08;99074.50;;;17.25;70.23
58295;BME280;45705;55.592;37.460;2022-07-18T04:23:34;99066.13;;;17.06;70.93
58295;BME280;45705;55.592;37.460;2022-07-18T04:26:00;99070.22;;;17.12;71.35
58295;BME280;45705;55.592;37.460;2022-07-18T04:28:26;99070.38;;;17.03;71.02
58295;BME280;45705;55.592;37.460;2022-07-18T04:30:52;99060.56;;;17.02;70.66
58295;BME280;45705;55.592;37.460;2022-07-18T04:33:18;99065.06;;;16.95;70.60
58295;BME280;45705;55.592;37.460;2022-07-18T04:35:44;99072.53;;;17.10;70.63
58295;BME280;45705;55.592;37.460;2022-07-18T04:38:10;99061.59;;;16.98;70.11
58295;BME280;45705;55.592;37.460;2022-07-18T04:40:36;99054.44;;;17.25;69.85
58295;BME280;45705;55.592;37.460;2022-07-18T04:43:03;99043.78;;;17.23;70.03
58295;BME280;45705;55.592;37.460;2022-07-18T04:45:29;99051.66;;;17.41;68.86
58295;BME280;45705;55.592;37.460;2022-07-18T04:47:55;99046.78;;;17.50;68.25
58295;BME280;45705;55.592;37.460;2022-07-18T04:50:22;99045.25;;;17.68;67.69
58295;BME280;45705;55.592;37.460;2022-07-18T04:52:48;99035.63;;;17.94;65.54
58295;BME280;45705;55.592;37.460;2022-07-18T04:55:16;99030.97;;;18.99;62.46
58295;BME280;45705;55.592;37.460;2022-07-18T04:57:42;99028.06;;;19.15;60.89
58295;BME280;45705;55.592;37.460;2022-07-18T05:00:13;99022.41;;;20.11;58.26
58295;BME280;45705;55.592;37.460;2022-07-18T05:02:44;99027.84;;;21.16;54.27
58295;BME280;45705;55.592;37.460;2022-07-18T05:05:11;99033.03;;;20.77;53.24
58295;BME280;45705;55.592;37.460;2022-07-18T05:07:41;99038.53;;;21.18;52.00
58295;BME280;45705;55.592;37.460;2022-07-18T05:10:08;99032.84;;;21.45;51.33
58295;BME280;45705;55.592;37.460;2022-07-18T05:12:37;99047.31;;;21.31;51.20
58295;BME280;45705;55.592;37.460;2022-07-18T05:15:08;99040.94;;;21.23;52.36
58295;BME280;45705;55.592;37.460;2022-07-18T05:17:36;99046.63;;;20.59;52.73
58295;BME280;45705;55.592;37.460;2022-07-18T05:20:07;99050.31;;;20.36;53.66
58295;BME280;45705;55.592;37.460;2022-07-18T05:22:36;99056.16;;;20.31;53.49
58295;BME280;45705;55.592;37.460;2022-07-18T05:25:03;99062.56;;;20.39;54.33
58295;BME280;45705;55.592;37.460;2022-07-18T05:27:29;99062.28;;;20.48;53.01
58295;BME280;45705;55.592;37.460;2022-07-18T05:29:55;99062.28;;;19.87;54.79
58295;BME280;45705;55.592;37.460;2022-07-18T05:32:21;99056.88;;;19.94;54.43
58295;BME280;45705;55.592;37.460;2022-07-18T05:34:47;99063.16;;;19.91;55.35
58295;BME280;45705;55.592;37.460;2022-07-18T05:37:13;99059.28;;;19.46;57.31
58295;BME280;45705;55.592;37.460;2022-07-18T05:39:39;99048.25;;;19.46;58.25
58295;BME280;45705;55.592;37.460;2022-07-18T05:42:05;99046.16;;;19.62;56.56
58295;BME280;45705;55.592;37.460;2022-07-18T05:44:31;99035.41;;;19.80;56.27
58295;BME280;45705;55.592;37.460;2022-07-18T05:46:56;99039.56;;;19.97;54.82
58295;BME280;45705;55.592;37.460;2022-07-18T05:49:22;99029.03;;;20.74;51.95
58295;BME280;45705;55.592;37.460;2022-07-18T05:51:48;99027.63;;;20.54;53.35
58295;BME280;45705;55.592;37.460;2022-07-18T05:54:13;99025.06;;;21.16;51.51
58295;BME280;45705;55.592;37.460;2022-07-18T05:56:51;99023.66;;;20.55;52.45
58295;BME280;45705;55.592;37.460;2022-07-18T05:59:18;99021.97;;;21.21;49.60
58295;BME280;45705;55.592;37.460;2022-07-18T06:01:44;99019.09;;;21.62;48.10
58295;BME280;45705;55.592;37.460;2022-07-18T06:04:10;99008.38;;;22.31;47.03
58295;BME280;45705;55.592;37.460;2022-07-18T06:06:37;99003.75;;;22.89;45.39
58295;BME280;45705;55.592;37.460;2022-07-18T06:09:03;98997.66;;;24.79;41.37
58295;BME280;45705;55.592;37.460;2022-07-18T06:11:29;99001.16;;;26.15;39.04
58295;BME280;45705;55.592;37.460;2022-07-18T06:13:56;98991.44;;;25.58;39.12
58295;BME280;45705;55.592;37.460;2022-07-18T06:16:22;99000.50;;;26.04;36.85
58295;BME280;45705;55.592;37.460;2022-07-18T06:18:47;98994.72;;;26.80;34.93
58295;BME280;45705;55.592;37.460;2022-07-18T06:21:13;98979.31;;;27.42;33.72
58295;BME280;45705;55.592;37.460;2022-07-18T06:23:39;98997.91;;;26.20;35.48
58295;BME280;45705;55.592;37.460;2022-07-18T06:26:05;99000.97;;;24.63;37.64
58295;BME280;45705;55.592;37.460;2022-07-18T06:28:31;99000.13;;;23.85;38.88
58295;BME280;45705;55.592;37.460;2022-07-18T06:30:57;98996.50;;;23.95;40.13
58295;BME280;45705;55.592;37.460;2022-07-18T06:33:23;98991.84;;;23.56;40.84
58295;BME280;45705;55.592;37.460;2022-07-18T06:35:50;99007.69;;;22.73;42.03
58295;BME280;45705;55.592;37.460;2022-07-18T06:38:16;99002.06;;;22.41;43.51
58295;BME280;45705;55.592;37.460;2022-07-18T06:40:42;98996.53;;;22.34;43.94
58295;BME280;45705;55.592;37.460;2022-07-18T06:43:09;98986.59;;;22.29;43.74
58295;BME280;45705;55.592;37.460;2022-07-18T06:45:35;98998.69;;;21.92;45.12
58295;BME280;45705;55.592;37.460;2022-07-18T06:48:01;98992.59;;;22.42;43.89
58295;BME280;45705;55.592;37.460;2022-07-18T06:50:27;98987.84;;;22.50;43.14
58295;BME280;45705;55.592;37.460;2022-07-18T06:52:53;98991.81;;;22.41;43.48
58295;BME280;45705;55.592;37.460;2022-07-18T06:55:19;98995.00;;;22.51;43.18
58295;BME280;45705;55.592;37.460;2022-07-18T06:57:45;98993.16;;;21.85;44.29
58295;BME280;45705;55.592;37.460;2022-07-18T07:00:12;98990.88;;;22.09;44.31
58295;BME280;45705;55.592;37.460;2022-07-18T07:02:44;98997.03;;;21.70;45.94
58295;BME280;45705;55.592;37.460;2022-07-18T07:05:10;98987.88;;;21.07;48.56
58295;BME280;45705;55.592;37.460;2022-07-18T07:07:36;99001.97;;;20.91;50.33
58295;BME280;45705;55.592;37.460;2022-07-18T07:10:02;98993.84;;;21.12;47.70
58295;BME280;45705;55.592;37.460;2022-07-18T07:12:28;98996.34;;;21.32;46.45
58295;BME280;45705;55.592;37.460;2022-07-18T07:14:54;98997.06;;;21.21;46.69
58295;BME280;45705;55.592;37.460;2022-07-18T07:17:19;98995.88;;;21.22;46.33
58295;BME280;45705;55.592;37.460;2022-07-18T07:19:45;98994.22;;;21.62;46.17
58295;BME280;45705;55.592;37.460;2022-07-18T07:22:11;98993.06;;;21.71;45.61
58295;BME280;45705;55.592;37.460;2022-07-18T07:24:37;98988.72;;;21.70;45.70
58295;BME280;45705;55.592;37.460;2022-07-18T07:27:04;98985.31;;;22.01;44.58
58295;BME280;45705;55.592;37.460;2022-07-18T07:29:30;99001.69;;;21.58;46.02
58295;BME280;45705;55.592;37.460;2022-07-18T07:31:55;98991.56;;;21.88;44.84
58295;BME280;45705;55.592;37.460;2022-07-18T07:34:21;98998.59;;;21.71;45.02
58295;BME280;45705;55.592;37.460;2022-07-18T07:36:47;98995.53;;;21.90;44.89
58295;BME280;45705;55.592;37.460;2022-07-18T07:39:13;98997.59;;;22.08;43.14
58295;BME280;45705;55.592;37.460;2022-07-18T07:41:39;98998.78;;;22.14;43.94
58295;BME280;45705;55.592;37.460;2022-07-18T07:44:04;98999.63;;;22.18;44.41
58295;BME280;45705;55.592;37.460;2022-07-18T07:46:30;98996.00;;;22.07;44.31
58295;BME280;45705;55.592;37.460;2022-07-18T07:48:56;98994.00;;;22.03;44.78
58295;BME280;45705;55.592;37.460;2022-07-18T07:51:22;98989.97;;;21.83;44.59
58295;BME280;45705;55.592;37.460;2022-07-18T07:53:47;98984.53;;;22.12;44.37
58295;BME280;45705;55.592;37.460;2022-07-18T07:56:13;98981.81;;;22.22;46.12
58295;BME280;45705;55.592;37.460;2022-07-18T07:58:44;98979.44;;;22.21;45.78
58295;BME280;45705;55.592;37.460;2022-07-18T08:01:10;98976.94;;;21.87;47.12
58295;BME280;45705;55.592;37.460;2022-07-18T08:03:37;98971.63;;;21.53;47.81
58295;BME280;45705;55.592;37.460;2022-07-18T08:06:03;98961.25;;;21.43;47.86
58295;BME280;45705;55.592;37.460;2022-07-18T08:08:29;98962.88;;;21.44;48.94
58295;BME280;45705;55.592;37.460;2022-07-18T08:10:55;98958.28;;;21.70;48.03
58295;BME280;45705;55.592;37.460;2022-07-18T08:13:21;98952.66;;;21.55;48.71
58295;BME280;45705;55.592;37.460;2022-07-18T08:15:47;98957.53;;;21.80;48.11
58295;BME280;45705;55.592;37.460;2022-07-18T08:18:12;98944.06;;;21.75;47.75
58295;BME280;45705;55.592;37.460;2022-07-18T08:20:38;98952.47;;;21.27;47.49
58295;BME280;45705;55.592;37.460;2022-07-18T08:23:09;98952.25;;;21.46;46.40
58295;BME280;45705;55.592;37.460;2022-07-18T08:25:38;98948.03;;;21.74;44.98
58295;BME280;45705;55.592;37.460;2022-07-18T08:28:05;98945.56;;;21.54;45.00
58295;BME280;45705;55.592;37.460;2022-07-18T08:30:32;98951.28;;;21.28;46.29
58295;BME280;45705;55.592;37.460;2022-07-18T08:32:58;98939.22;;;21.57;45.92
58295;BME280;45705;55.592;37.460;2022-07-18T08:35:24;98929.91;;;21.94;45.21
58295;BME280;45705;55.592;37.460;2022-07-18T08:37:50;98941.44;;;21.34;46.01
58295;BME280;45705;55.592;37.460;2022-07-18T08:40:16;98939.88;;;21.33;45.89
58295;BME280;45705;55.592;37.460;2022-07-18T08:42:42;98935.34;;;21.66;45.80
58295;BME280;45705;55.592;37.460;2022-07-18T08:45:08;98940.03;;;20.99;46.99
58295;BME280;45705;55.592;37.460;2022-07-18T08:47:34;98935.09;;;21.26;46.68
58295;BME280;45705;55.592;37.460;2022-07-18T08:50:00;98924.97;;;21.52;46.86
58295;BME280;45705;55.592;37.460;2022-07-18T08:52:28;98925.03;;;21.59;46.74
58295;BME280;45705;55.592;37.460;2022-07-18T08:54:56;98932.16;;;21.63;46.53
58295;BME280;45705;55.592;37.460;2022-07-18T08:57:22;98927.09;;;21.10;47.70
58295;BME280;45705;55.592;37.460;2022-07-18T08:59:48;98921.06;;;20.94;47.82
58295;BME280;45705;55.592;37.460;2022-07-18T09:02:14;98929.44;;;21.08;47.15
58295;BME280;45705;55.592;37.460;2022-07-18T09:04:42;98929.94;;;21.24;48.03
58295;BME280;45705;55.592;37.460;2022-07-18T09:07:09;98926.28;;;21.10;48.53
58295;BME280;45705;55.592;37.460;2022-07-18T09:09:36;98927.25;;;21.35;48.48
58295;BME280;45705;55.592;37.460;2022-07-18T09:12:07;98925.81;;;20.52;49.77
58295;BME280;45705;55.592;37.460;2022-07-18T09:14:41;98929.50;;;20.26;50.40
58295;BME280;45705;55.592;37.460;2022-07-18T09:17:19;98927.81;;;20.55;49.32
58295;BME280;45705;55.592;37.460;2022-07-18T09:20:13;98925.97;;;20.70;49.66
58295;BME280;45705;55.592;37.460;2022-07-18T09:22:44;98922.47;;;20.32;50.08
58295;BME280;45705;55.592;37.460;2022-07-18T09:27:40;98924.47;;;20.80;50.65
58295;BME280;45705;55.592;37.460;2022-07-18T09:30:33;98917.28;;;20.68;51.33
58295;BME280;45705;55.592;37.460;2022-07-18T09:35:46;98922.03;;;21.23;48.67
58295;BME280;45705;55.592;37.460;2022-07-18T09:38:17;98913.75;;;21.23;49.57
58295;BME280;45705;55.592;37.460;2022-07-18T09:40:48;98903.88;;;21.26;50.50
58295;BME280;45705;55.592;37.460;2022-07-18T09:43:19;98909.75;;;21.13;51.31
58295;BME280;45705;55.592;37.460;2022-07-18T09:45:50;98904.91;;;21.03;50.99
58295;BME280;45705;55.592;37.460;2022-07-18T09:48:21;98895.59;;;21.26;49.34
58295;BME280;45705;55.592;37.460;2022-07-18T09:50:55;98898.00;;;21.38;49.96
58295;BME280;45705;55.592;37.460;2022-07-18T09:53:23;98889.31;;;21.36;48.85
58295;BME280;45705;55.592;37.460;2022-07-18T09:55:54;98899.22;;;21.40;48.71
58295;BME280;45705;55.592;37.460;2022-07-18T09:58:26;98896.69;;;21.14;49.83
58295;BME280;45705;55.592;37.460;2022-07-18T10:00:53;98897.47;;;21.14;49.82
58295;BME280;45705;55.592;37.460;2022-07-18T10:03:21;98890.56;;;20.83;49.20
58295;BME280;45705;55.592;37.460;2022-07-18T10:05:48;98891.13;;;21.07;48.28
58295;BME280;45705;55.592;37.460;2022-07-18T10:08:17;98890.34;;;21.06;49.19
58295;BME280;45705;55.592;37.460;2022-07-18T10:10:45;98887.75;;;21.42;48.88
58295;BME280;45705;55.592;37.460;2022-07-18T10:13:12;98886.88;;;21.23;48.64
58295;BME280;45705;55.592;37.460;2022-07-18T10:15:40;98873.91;;;21.35;48.78
58295;BME280;45705;55.592;37.460;2022-07-18T10:18:08;98881.56;;;21.67;47.86
58295;BME280;45705;55.592;37.460;2022-07-18T10:23:24;98865.88;;;22.03;45.37
58295;BME280;45705;55.592;37.460;2022-07-18T10:31:32;98868.25;;;22.01;45.98
58295;BME280;45705;55.592;37.460;2022-07-18T10:36:34;98874.81;;;21.53;45.66
58295;BME280;45705;55.592;37.460;2022-07-18T10:47:05;98861.69;;;21.43;47.00
58295;BME280;45705;55.592;37.460;2022-07-18T10:58:27;98860.97;;;21.46;46.24
58295;BME280;45705;55.592;37.460;2022-07-18T11:00:39;98856.94;;;21.40;47.04
58295;BME280;45705;55.592;37.460;2022-07-18T11:03:10;98862.44;;;21.33;48.18
58295;BME280;45705;55.592;37.460;2022-07-18T11:05:49;98858.19;;;21.53;46.73
58295;BME280;45705;55.592;37.460;2022-07-18T11:08:18;98853.50;;;21.65;46.41
58295;BME280;45705;55.592;37.460;2022-07-18T11:16:13;98841.69;;;21.82;45.23
58295;BME280;45705;55.592;37.460;2022-07-18T11:23:44;98854.16;;;20.70;51.63
58295;BME280;45705;55.592;37.460;2022-07-18T11:26:16;98847.53;;;20.34;52.32
58295;BME280;45705;55.592;37.460;2022-07-18T11:28:42;98856.69;;;20.41;53.19
58295;BME280;45705;55.592;37.460;2022-07-18T11:31:09;98851.31;;;20.15;53.61
58295;BME280;45705;55.592;37.460;2022-07-18T11:33:41;98844.84;;;20.00;54.83
58295;BME280;45705;55.592;37.460;2022-07-18T11:36:11;98837.97;;;19.49;56.23
58295;BME280;45705;55.592;37.460;2022-07-18T11:38:39;98858.19;;;19.00;59.29
58295;BME280;45705;55.592;37.460;2022-07-18T11:41:05;98859.47;;;19.06;59.78
58295;BME280;45705;55.592;37.460;2022-07-18T11:43:31;98861.66;;;19.23;59.38
58295;BME280;45705;55.592;37.460;2022-07-18T11:46:01;98853.06;;;19.28;59.09
58295;BME280;45705;55.592;37.460;2022-07-18T11:48:27;98851.81;;;19.22;59.52
58295;BME280;45705;55.592;37.460;2022-07-18T11:50:53;98844.63;;;19.44;59.80
58295;BME280;45705;55.592;37.460;2022-07-18T11:53:19;98843.44;;;19.45;60.16
58295;BME280;45705;55.592;37.460;2022-07-18T11:55:45;98845.56;;;19.25;61.26
58295;BME280;45705;55.592;37.460;2022-07-18T11:58:13;98841.50;;;19.50;61.56
58295;BME280;45705;55.592;37.460;2022-07-18T12:00:40;98842.03;;;19.28;62.92
58295;BME280;45705;55.592;37.460;2022-07-18T12:03:20;98833.28;;;19.19;63.73
58295;BME280;45705;55.592;37.460;2022-07-18T12:05:52;98834.78;;;19.47;61.43
58295;BME280;45705;55.592;37.460;2022-07-18T12:11:30;98834.38;;;19.79;60.66
58295;BME280;45705;55.592;37.460;2022-07-18T12:13:58;98831.78;;;19.59;61.31
58295;BME280;45705;55.592;37.460;2022-07-18T12:18:53;98832.03;;;19.81;60.95
58295;BME280;45705;55.592;37.460;2022-07-18T12:21:19;98832.31;;;20.10;59.78
58295;BME280;45705;55.592;37.460;2022-07-18T12:23:45;98832.94;;;19.92;59.46
58295;BME280;45705;55.592;37.460;2022-07-18T12:26:30;98824.59;;;19.85;57.17
58295;BME280;45705;55.592;37.460;2022-07-18T12:29:07;98834.50;;;19.90;56.94
58295;BME280;45705;55.592;37.460;2022-07-18T12:31:45;98834.19;;;19.98;55.77
58295;BME280;45705;55.592;37.460;2022-07-18T12:34:12;98843.97;;;19.92;56.46
58295;BME280;45705;55.592;37.460;2022-07-18T12:36:54;98842.03;;;20.37;56.61
58295;BME280;45705;55.592;37.460;2022-07-18T12:39:27;98848.13;;;20.13;55.72
58295;BME280;45705;55.592;37.460;2022-07-18T12:41:54;98847.31;;;20.09;56.00
58295;BME280;45705;55.592;37.460;2022-07-18T12:44:20;98854.56;;;20.24;55.64
58295;BME280;45705;55.592;37.460;2022-07-18T12:46:45;98854.56;;;20.24;55.64
58295;BME280;45705;55.592;37.460;2022-07-18T12:49:11;98851.00;;;19.86;54.32
58295;BME280;45705;55.592;37.460;2022-07-18T12:51:37;98846.84;;;20.03;53.70
58295;BME280;45705;55.592;37.460;2022-07-18T12:54:03;98842.81;;;19.93;54.02
58295;BME280;45705;55.592;37.460;2022-07-18T12:56:28;98840.50;;;19.99;53.35
58295;BME280;45705;55.592;37.460;2022-07-18T12:58:54;98836.03;;;19.83;54.20
58295;BME280;45705;55.592;37.460;2022-07-18T13:01:20;98827.91;;;19.67;53.49
58295;BME280;45705;55.592;37.460;2022-07-18T13:03:46;98818.25;;;19.81;53.34
58295;BME280;45705;55.592;37.460;2022-07-18T13:06:12;98820.28;;;19.88;53.56
58295;BME280;45705;55.592;37.460;2022-07-18T13:08:38;98824.28;;;19.94;53.73
58295;BME280;45705;55.592;37.460;2022-07-18T13:11:04;98820.47;;;20.05;53.13
58295;BME280;45705;55.592;37.460;2022-07-18T13:13:29;98830.75;;;20.12;52.38
58295;BME280;45705;55.592;37.460;2022-07-18T13:15:55;98822.06;;;20.10;52.07
58295;BME280;45705;55.592;37.460;2022-07-18T13:18:21;98820.88;;;20.08;51.51
58295;BME280;45705;55.592;37.460;2022-07-18T13:20:47;98822.41;;;19.67;52.16
58295;BME280;45705;55.592;37.460;2022-07-18T13:23:13;98820.22;;;19.80;52.27
58295;BME280;45705;55.592;37.460;2022-07-18T13:25:41;98817.28;;;20.03;51.41
58295;BME280;45705;55.592;37.460;2022-07-18T13:28:06;98818.84;;;19.67;52.13
58295;BME280;45705;55.592;37.460;2022-07-18T13:30:33;98814.28;;;19.44;52.66
58295;BME280;45705;55.592;37.460;2022-07-18T13:32:59;98815.84;;;19.76;51.95
58295;BME280;45705;55.592;37.460;2022-07-18T13:35:25;98827.91;;;19.64;51.47
58295;BME280;45705;55.592;37.460;2022-07-18T13:37:51;98826.50;;;19.81;51.83
58295;BME280;45705;55.592;37.460;2022-07-18T13:40:17;98824.38;;;19.67;51.51